sensor_id;sensor_type;location;lat;lon;timestamp;temperature;humidity
60860;DHT22;46694;54.382;9.708;2022-08-03T00:02:29;19.50;99.90
60860;DHT22;46694;54.382;9.708;2022-08-03T00:05:09;19.50;99.90
60860;DHT22;46694;54.382;9.708;2022-08-03T00:07:49;19.50;99.90
60860;DHT22;46694;54.382;9.708;2022-08-03T00:10:28;19.50;99.90
60860;DHT22;46694;54.382;9.708;2022-08-03T00:13:08;19.50;99.90
60860;DHT22;46694;54.382;9.708;2022-08-03T00:15:51;19.40;99.90
60860;DHT22;46694;54.382;9.708;2022-08-03T00:18:30;19.40;99.90
60860;DHT22;46694;54.382;9.708;2022-08-03T00:21:10;19.40;99.90
60860;DHT22;46694;54.382;9.708;2022-08-03T00:23:50;19.40;99.90
60860;DHT22;46694;54.382;9.708;2022-08-03T00:26:30;19.30;99.90
60860;DHT22;46694;54.382;9.708;2022-08-03T00:29:10;19.30;99.90
60860;DHT22;46694;54.382;9.708;2022-08-03T00:31:49;19.30;99.90
60860;DHT22;46694;54.382;9.708;2022-08-03T00:34:29;19.30;99.90
60860;DHT22;46694;54.382;9.708;2022-08-03T00:37:09;19.30;99.90
60860;DHT22;46694;54.382;9.708;2022-08-03T00:39:49;19.30;99.90
60860;DHT22;46694;54.382;9.708;2022-08-03T00:42:28;19.30;99.90
60860;DHT22;46694;54.382;9.708;2022-08-03T00:45:08;19.30;99.90
60860;DHT22;46694;54.382;9.708;2022-08-03T00:47:48;19.30;99.90
60860;DHT22;46694;54.382;9.708;2022-08-03T00:50:29;19.30;99.90
60860;DHT22;46694;54.382;9.708;2022-08-03T00:53:10;19.20;99.90
60860;DHT22;46694;54.382;9.708;2022-08-03T00:55:50;19.20;99.90
60860;DHT22;46694;54.382;9.708;2022-08-03T00:58:30;19.20;99.90
60860;DHT22;46694;54.382;9.708;2022-08-03T01:01:10;19.20;99.90
60860;DHT22;46694;54.382;9.708;2022-08-03T01:03:50;19.20;99.90
60860;DHT22;46694;54.382;9.708;2022-08-03T01:06:40;19.20;99.90
60860;DHT22;46694;54.382;9.708;2022-08-03T01:09:46;19.20;99.90
60860;DHT22;46694;54.382;9.708;2022-08-03T01:12:38;19.20;99.90
60860;DHT22;46694;54.382;9.708;2022-08-03T01:15:53;19.20;99.90
60860;DHT22;46694;54.382;9.708;2022-08-03T01:18:51;19.20;99.90
60860;DHT22;46694;54.382;9.708;2022-08-03T01:22:09;19.20;99.90
60860;DHT22;46694;54.382;9.708;2022-08-03T01:32:14;19.10;99.90
60860;DHT22;46694;54.382;9.708;2022-08-03T01:35:08;19.10;99.90
60860;DHT22;46694;54.382;9.708;2022-08-03T01:37:55;19.00;99.90
60860;DHT22;46694;54.382;9.708;2022-08-03T01:40:39;19.00;99.90
60860;DHT22;46694;54.382;9.708;2022-08-03T01:43:24;19.00;99.90
60860;DHT22;46694;54.382;9.708;2022-08-03T01:46:06;19.00;99.90
60860;DHT22;46694;54.382;9.708;2022-08-03T01:48:48;18.90;99.90
60860;DHT22;46694;54.382;9.708;2022-08-03T01:51:28;18.90;99.90
60860;DHT22;46694;54.382;9.708;2022-08-03T01:54:09;18.90;99.90
60860;DHT22;46694;54.382;9.708;2022-08-03T01:56:51;18.90;99.90
60860;DHT22;46694;54.382;9.708;2022-08-03T01:59:33;18.90;99.90
60860;DHT22;46694;54.382;9.708;2022-08-03T02:02:15;18.90;99.90
60860;DHT22;46694;54.382;9.708;2022-08-03T02:04:56;19.00;99.90
60860;DHT22;46694;54.382;9.708;2022-08-03T02:07:39;18.90;99.90
60860;DHT22;46694;54.382;9.708;2022-08-03T02:10:21;18.90;99.90
60860;DHT22;46694;54.382;9.708;2022-08-03T02:13:02;18.90;99.90
60860;DHT22;46694;54.382;9.708;2022-08-03T02:15:45;18.90;99.90
60860;DHT22;46694;54.382;9.708;2022-08-03T02:18:25;18.90;99.90
60860;DHT22;46694;54.382;9.708;2022-08-03T02:21:06;18.90;99.90
60860;DHT22;46694;54.382;9.708;2022-08-03T02:23:49;18.80;99.90
60860;DHT22;46694;54.382;9.708;2022-08-03T02:26:29;18.90;99.90
60860;DHT22;46694;54.382;9.708;2022-08-03T02:29:21;18.90;99.90
60860;DHT22;46694;54.382;9.708;2022-08-03T02:32:03;18.80;99.90
60860;DHT22;46694;54.382;9.708;2022-08-03T02:34:46;18.80;99.90
60860;DHT22;46694;54.382;9.708;2022-08-03T02:37:31;18.90;99.90
60860;DHT22;46694;54.382;9.708;2022-08-03T02:40:14;18.90;99.90
60860;DHT22;46694;54.382;9.708;2022-08-03T02:42:56;18.90;99.90
60860;DHT22;46694;54.382;9.708;2022-08-03T02:45:47;18.90;99.90
60860;DHT22;46694;54.382;9.708;2022-08-03T02:48:29;18.90;99.90
60860;DHT22;46694;54.382;9.708;2022-08-03T02:51:10;18.90;99.90
60860;DHT22;46694;54.382;9.708;2022-08-03T02:53:50;18.90;99.90
60860;DHT22;46694;54.382;9.708;2022-08-03T02:56:31;18.90;99.90
60860;DHT22;46694;54.382;9.708;2022-08-03T02:59:13;18.90;99.90
60860;DHT22;46694;54.382;9.708;2022-08-03T03:01:54;18.90;99.90
60860;DHT22;46694;54.382;9.708;2022-08-03T03:04:33;18.90;99.90
60860;DHT22;46694;54.382;9.708;2022-08-03T03:07:14;18.90;99.90
60860;DHT22;46694;54.382;9.708;2022-08-03T03:09:54;18.90;99.90
60860;DHT22;46694;54.382;9.708;2022-08-03T03:12:36;19.00;99.90
60860;DHT22;46694;54.382;9.708;2022-08-03T03:15:16;18.90;99.90
60860;DHT22;46694;54.382;9.708;2022-08-03T03:17:58;19.00;99.90
60860;DHT22;46694;54.382;9.708;2022-08-03T03:20:38;18.90;99.90
60860;DHT22;46694;54.382;9.708;2022-08-03T03:23:24;19.00;99.90
60860;DHT22;46694;54.382;9.708;2022-08-03T03:26:04;19.00;99.90
60860;DHT22;46694;54.382;9.708;2022-08-03T03:28:44;19.00;99.90
60860;DHT22;46694;54.382;9.708;2022-08-03T03:31:24;19.00;99.90
60860;DHT22;46694;54.382;9.708;2022-08-03T03:34:04;19.00;99.90
60860;DHT22;46694;54.382;9.708;2022-08-03T03:36:44;19.00;99.90
60860;DHT22;46694;54.382;9.708;2022-08-03T03:39:23;19.00;99.90
60860;DHT22;46694;54.382;9.708;2022-08-03T03:42:03;19.00;99.90
60860;DHT22;46694;54.382;9.708;2022-08-03T03:44:43;19.00;99.90
60860;DHT22;46694;54.382;9.708;2022-08-03T03:47:23;19.00;99.90
60860;DHT22;46694;54.382;9.708;2022-08-03T03:50:06;19.00;99.90
60860;DHT22;46694;54.382;9.708;2022-08-03T03:52:46;19.00;99.90
60860;DHT22;46694;54.382;9.708;2022-08-03T03:55:26;19.00;99.90
60860;DHT22;46694;54.382;9.708;2022-08-03T03:58:05;19.10;99.90
60860;DHT22;46694;54.382;9.708;2022-08-03T04:00:45;19.10;99.90
60860;DHT22;46694;54.382;9.708;2022-08-03T04:03:25;19.10;99.90
60860;DHT22;46694;54.382;9.708;2022-08-03T04:06:05;19.10;99.90
60860;DHT22;46694;54.382;9.708;2022-08-03T04:09:03;19.20;99.90
60860;DHT22;46694;54.382;9.708;2022-08-03T04:12:22;19.20;99.90
60860;DHT22;46694;54.382;9.708;2022-08-03T04:15:03;19.20;99.90
60860;DHT22;46694;54.382;9.708;2022-08-03T04:17:46;19.20;99.90
60860;DHT22;46694;54.382;9.708;2022-08-03T04:20:29;19.30;99.90
60860;DHT22;46694;54.382;9.708;2022-08-03T04:23:11;19.40;99.90
60860;DHT22;46694;54.382;9.708;2022-08-03T04:25:52;19.40;99.90
60860;DHT22;46694;54.382;9.708;2022-08-03T04:28:33;19.50;99.90
60860;DHT22;46694;54.382;9.708;2022-08-03T04:31:15;19.60;99.90
60860;DHT22;46694;54.382;9.708;2022-08-03T04:33:55;19.80;99.90
60860;DHT22;46694;54.382;9.708;2022-08-03T04:36:39;19.90;99.90
60860;DHT22;46694;54.382;9.708;2022-08-03T04:39:27;20.10;99.90
60860;DHT22;46694;54.382;9.708;2022-08-03T04:42:11;20.30;99.90
60860;DHT22;46694;54.382;9.708;2022-08-03T04:44:53;20.40;99.90
60860;DHT22;46694;54.382;9.708;2022-08-03T04:47:34;20.50;99.90
60860;DHT22;46694;54.382;9.708;2022-08-03T04:50:16;20.70;99.90
60860;DHT22;46694;54.382;9.708;2022-08-03T04:52:56;20.90;99.90
60860;DHT22;46694;54.382;9.708;2022-08-03T04:55:35;21.10;99.90
60860;DHT22;46694;54.382;9.708;2022-08-03T04:58:15;21.20;99.90
60860;DHT22;46694;54.382;9.708;2022-08-03T05:00:55;21.20;99.90
60860;DHT22;46694;54.382;9.708;2022-08-03T05:03:34;21.30;99.90
60860;DHT22;46694;54.382;9.708;2022-08-03T05:06:14;21.20;99.90
60860;DHT22;46694;54.382;9.708;2022-08-03T05:08:54;21.20;99.90
60860;DHT22;46694;54.382;9.708;2022-08-03T05:11:33;21.20;99.90
60860;DHT22;46694;54.382;9.708;2022-08-03T05:14:13;21.30;99.90
60860;DHT22;46694;54.382;9.708;2022-08-03T05:16:52;21.50;99.90
60860;DHT22;46694;54.382;9.708;2022-08-03T05:19:32;21.90;99.90
60860;DHT22;46694;54.382;9.708;2022-08-03T05:22:12;22.10;99.90
60860;DHT22;46694;54.382;9.708;2022-08-03T05:24:52;22.40;99.90
60860;DHT22;46694;54.382;9.708;2022-08-03T05:27:31;22.70;99.90
60860;DHT22;46694;54.382;9.708;2022-08-03T05:30:11;23.00;99.50
60860;DHT22;46694;54.382;9.708;2022-08-03T05:32:51;23.20;98.90
60860;DHT22;46694;54.382;9.708;2022-08-03T05:35:31;23.30;98.50
60860;DHT22;46694;54.382;9.708;2022-08-03T05:38:13;23.30;98.20
60860;DHT22;46694;54.382;9.708;2022-08-03T05:40:52;23.40;98.00
60860;DHT22;46694;54.382;9.708;2022-08-03T05:43:32;23.60;97.90
60860;DHT22;46694;54.382;9.708;2022-08-03T05:46:12;23.70;97.50
60860;DHT22;46694;54.382;9.708;2022-08-03T05:48:51;23.90;97.20
60860;DHT22;46694;54.382;9.708;2022-08-03T05:51:31;24.00;96.70
60860;DHT22;46694;54.382;9.708;2022-08-03T05:54:11;24.20;96.60
60860;DHT22;46694;54.382;9.708;2022-08-03T05:56:50;24.40;96.20
60860;DHT22;46694;54.382;9.708;2022-08-03T05:59:30;24.60;95.70
60860;DHT22;46694;54.382;9.708;2022-08-03T06:02:09;24.70;95.40
60860;DHT22;46694;54.382;9.708;2022-08-03T06:04:49;24.90;95.20
60860;DHT22;46694;54.382;9.708;2022-08-03T06:07:29;25.10;94.90
60860;DHT22;46694;54.382;9.708;2022-08-03T06:10:08;25.30;94.60
60860;DHT22;46694;54.382;9.708;2022-08-03T06:12:47;25.60;94.20
60860;DHT22;46694;54.382;9.708;2022-08-03T06:15:29;25.80;93.90
60860;DHT22;46694;54.382;9.708;2022-08-03T06:18:11;26.10;93.50
60860;DHT22;46694;54.382;9.708;2022-08-03T06:20:51;26.30;93.00
60860;DHT22;46694;54.382;9.708;2022-08-03T06:23:31;26.50;92.60
60860;DHT22;46694;54.382;9.708;2022-08-03T06:26:10;26.60;92.30
60860;DHT22;46694;54.382;9.708;2022-08-03T06:28:50;26.80;92.10
60860;DHT22;46694;54.382;9.708;2022-08-03T06:31:30;27.00;91.90
60860;DHT22;46694;54.382;9.708;2022-08-03T06:34:10;27.20;91.60
60860;DHT22;46694;54.382;9.708;2022-08-03T06:36:49;27.40;91.60
60860;DHT22;46694;54.382;9.708;2022-08-03T06:39:29;27.90;91.30
60860;DHT22;46694;54.382;9.708;2022-08-03T06:42:08;28.10;90.60
60860;DHT22;46694;54.382;9.708;2022-08-03T06:44:49;28.10;90.10
60860;DHT22;46694;54.382;9.708;2022-08-03T06:47:29;28.20;89.70
60860;DHT22;46694;54.382;9.708;2022-08-03T06:50:09;28.40;89.20
60860;DHT22;46694;54.382;9.708;2022-08-03T06:52:49;28.40;88.50
60860;DHT22;46694;54.382;9.708;2022-08-03T06:55:28;28.60;87.90
60860;DHT22;46694;54.382;9.708;2022-08-03T06:58:08;28.80;87.30
60860;DHT22;46694;54.382;9.708;2022-08-03T07:00:48;28.90;86.30
60860;DHT22;46694;54.382;9.708;2022-08-03T07:03:28;29.10;87.10
60860;DHT22;46694;54.382;9.708;2022-08-03T07:06:07;29.40;86.00
60860;DHT22;46694;54.382;9.708;2022-08-03T07:08:47;29.60;84.60
60860;DHT22;46694;54.382;9.708;2022-08-03T07:11:27;29.60;83.80
60860;DHT22;46694;54.382;9.708;2022-08-03T07:14:06;29.70;83.40
60860;DHT22;46694;54.382;9.708;2022-08-03T07:16:46;29.80;83.20
60860;DHT22;46694;54.382;9.708;2022-08-03T07:19:26;30.00;83.70
60860;DHT22;46694;54.382;9.708;2022-08-03T07:22:05;30.00;81.70
60860;DHT22;46694;54.382;9.708;2022-08-03T07:24:46;29.90;81.60
60860;DHT22;46694;54.382;9.708;2022-08-03T07:27:46;29.70;81.90
60860;DHT22;46694;54.382;9.708;2022-08-03T07:30:26;29.90;81.80
60860;DHT22;46694;54.382;9.708;2022-08-03T07:33:07;30.00;81.10
60860;DHT22;46694;54.382;9.708;2022-08-03T07:35:46;30.20;80.80
60860;DHT22;46694;54.382;9.708;2022-08-03T07:38:26;30.30;80.10
60860;DHT22;46694;54.382;9.708;2022-08-03T07:41:06;30.40;80.10
60860;DHT22;46694;54.382;9.708;2022-08-03T07:43:45;30.60;79.60
60860;DHT22;46694;54.382;9.708;2022-08-03T07:46:25;30.80;79.00
60860;DHT22;46694;54.382;9.708;2022-08-03T07:49:04;31.10;78.70
60860;DHT22;46694;54.382;9.708;2022-08-03T07:51:44;31.40;77.90
60860;DHT22;46694;54.382;9.708;2022-08-03T07:54:24;31.60;76.50
60860;DHT22;46694;54.382;9.708;2022-08-03T07:57:03;31.80;75.80
60860;DHT22;46694;54.382;9.708;2022-08-03T07:59:45;31.90;75.20
60860;DHT22;46694;54.382;9.708;2022-08-03T08:02:25;32.00;74.60
60860;DHT22;46694;54.382;9.708;2022-08-03T08:05:05;32.20;74.00
60860;DHT22;46694;54.382;9.708;2022-08-03T08:07:44;32.40;72.70
60860;DHT22;46694;54.382;9.708;2022-08-03T08:10:24;32.50;71.70
60860;DHT22;46694;54.382;9.708;2022-08-03T08:13:04;32.30;71.50
60860;DHT22;46694;54.382;9.708;2022-08-03T08:15:43;32.30;71.70
60860;DHT22;46694;54.382;9.708;2022-08-03T08:18:23;32.40;71.40
60860;DHT22;46694;54.382;9.708;2022-08-03T08:21:02;32.60;70.60
60860;DHT22;46694;54.382;9.708;2022-08-03T08:23:42;32.60;70.60
60860;DHT22;46694;54.382;9.708;2022-08-03T08:26:22;32.70;70.70
60860;DHT22;46694;54.382;9.708;2022-08-03T08:29:02;33.00;69.50
60860;DHT22;46694;54.382;9.708;2022-08-03T08:31:42;32.90;68.90
60860;DHT22;46694;54.382;9.708;2022-08-03T08:34:22;32.90;68.90
60860;DHT22;46694;54.382;9.708;2022-08-03T08:37:01;32.80;67.90
60860;DHT22;46694;54.382;9.708;2022-08-03T08:39:41;32.80;67.90
60860;DHT22;46694;54.382;9.708;2022-08-03T08:42:21;32.90;68.10
60860;DHT22;46694;54.382;9.708;2022-08-03T08:45:01;33.10;67.60
60860;DHT22;46694;54.382;9.708;2022-08-03T08:47:45;33.20;66.40
60860;DHT22;46694;54.382;9.708;2022-08-03T08:50:26;33.10;66.00
60860;DHT22;46694;54.382;9.708;2022-08-03T08:53:06;33.10;65.40
60860;DHT22;46694;54.382;9.708;2022-08-03T08:55:48;33.00;65.00
60860;DHT22;46694;54.382;9.708;2022-08-03T08:58:32;32.90;65.70
60860;DHT22;46694;54.382;9.708;2022-08-03T09:01:17;33.10;65.30
60860;DHT22;46694;54.382;9.708;2022-08-03T09:03:58;33.10;64.70
60860;DHT22;46694;54.382;9.708;2022-08-03T09:06:37;33.10;64.80
60860;DHT22;46694;54.382;9.708;2022-08-03T09:09:17;33.10;64.20
60860;DHT22;46694;54.382;9.708;2022-08-03T09:11:56;33.10;64.70
60860;DHT22;46694;54.382;9.708;2022-08-03T09:14:36;33.10;64.20
60860;DHT22;46694;54.382;9.708;2022-08-03T09:17:15;33.00;64.40
60860;DHT22;46694;54.382;9.708;2022-08-03T09:20:05;33.10;64.80
60860;DHT22;46694;54.382;9.708;2022-08-03T09:22:51;33.10;64.00
60860;DHT22;46694;54.382;9.708;2022-08-03T09:25:34;33.10;63.80
60860;DHT22;46694;54.382;9.708;2022-08-03T09:28:16;33.10;64.30
60860;DHT22;46694;54.382;9.708;2022-08-03T09:30:58;32.90;64.00
60860;DHT22;46694;54.382;9.708;2022-08-03T09:33:47;32.90;64.70
60860;DHT22;46694;54.382;9.708;2022-08-03T09:39:24;33.80;64.00
60860;DHT22;46694;54.382;9.708;2022-08-03T09:44:55;33.80;62.50
60860;DHT22;46694;54.382;9.708;2022-08-03T09:47:36;33.60;62.40
60860;DHT22;46694;54.382;9.708;2022-08-03T09:50:15;33.50;63.00
60860;DHT22;46694;54.382;9.708;2022-08-03T09:53:00;33.50;62.70
60860;DHT22;46694;54.382;9.708;2022-08-03T09:55:53;33.40;62.90
60860;DHT22;46694;54.382;9.708;2022-08-03T09:58:46;33.30;62.90
60860;DHT22;46694;54.382;9.708;2022-08-03T10:01:32;33.40;63.70
60860;DHT22;46694;54.382;9.708;2022-08-03T10:04:15;33.70;63.10
60860;DHT22;46694;54.382;9.708;2022-08-03T10:09:57;34.00;61.10
60860;DHT22;46694;54.382;9.708;2022-08-03T10:12:38;34.00;61.00
60860;DHT22;46694;54.382;9.708;2022-08-03T10:15:19;34.00;61.60
60860;DHT22;46694;54.382;9.708;2022-08-03T10:17:59;34.10;61.10
60860;DHT22;46694;54.382;9.708;2022-08-03T10:20:52;34.10;61.00
60860;DHT22;46694;54.382;9.708;2022-08-03T10:23:34;34.00;61.10
60860;DHT22;46694;54.382;9.708;2022-08-03T10:26:18;33.90;61.10
60860;DHT22;46694;54.382;9.708;2022-08-03T10:29:04;34.00;61.30
60860;DHT22;46694;54.382;9.708;2022-08-03T10:31:47;33.90;60.40
60860;DHT22;46694;54.382;9.708;2022-08-03T10:34:33;33.80;60.20
60860;DHT22;46694;54.382;9.708;2022-08-03T10:37:14;33.20;60.70
60860;DHT22;46694;54.382;9.708;2022-08-03T10:39:57;32.80;62.00
60860;DHT22;46694;54.382;9.708;2022-08-03T10:42:41;32.70;62.60
60860;DHT22;46694;54.382;9.708;2022-08-03T10:45:26;32.60;63.10
60860;DHT22;46694;54.382;9.708;2022-08-03T10:48:06;32.50;63.50
60860;DHT22;46694;54.382;9.708;2022-08-03T10:50:47;32.50;63.60
60860;DHT22;46694;54.382;9.708;2022-08-03T10:53:39;32.50;63.70
60860;DHT22;46694;54.382;9.708;2022-08-03T11:05:50;32.90;65.70
60860;DHT22;46694;54.382;9.708;2022-08-03T11:08:33;33.00;65.50
60860;DHT22;46694;54.382;9.708;2022-08-03T11:14:07;32.60;66.40
60860;DHT22;46694;54.382;9.708;2022-08-03T11:17:07;32.50;67.50
60860;DHT22;46694;54.382;9.708;2022-08-03T11:19:51;32.50;68.20
60860;DHT22;46694;54.382;9.708;2022-08-03T11:22:48;32.40;67.70
60860;DHT22;46694;54.382;9.708;2022-08-03T11:28:50;32.30;69.00
60860;DHT22;46694;54.382;9.708;2022-08-03T11:34:11;32.60;68.40
60860;DHT22;46694;54.382;9.708;2022-08-03T11:37:21;32.50;68.20
60860;DHT22;46694;54.382;9.708;2022-08-03T11:40:02;32.30;68.80
60860;DHT22;46694;54.382;9.708;2022-08-03T11:42:43;32.10;69.50
60860;DHT22;46694;54.382;9.708;2022-08-03T11:45:23;32.00;69.80
60860;DHT22;46694;54.382;9.708;2022-08-03T11:48:14;32.10;70.20
60860;DHT22;46694;54.382;9.708;2022-08-03T11:50:55;32.20;69.50
60860;DHT22;46694;54.382;9.708;2022-08-03T11:53:35;32.30;70.00
60860;DHT22;46694;54.382;9.708;2022-08-03T11:56:14;32.30;70.10
60860;DHT22;46694;54.382;9.708;2022-08-03T11:58:56;32.50;69.80
60860;DHT22;46694;54.382;9.708;2022-08-03T12:01:36;32.40;69.20
60860;DHT22;46694;54.382;9.708;2022-08-03T12:04:16;32.50;69.40
60860;DHT22;46694;54.382;9.708;2022-08-03T12:07:02;32.70;69.40
60860;DHT22;46694;54.382;9.708;2022-08-03T12:09:42;32.90;69.20
60860;DHT22;46694;54.382;9.708;2022-08-03T12:12:22;33.00;68.40
60860;DHT22;46694;54.382;9.708;2022-08-03T12:15:03;33.00;67.50
60860;DHT22;46694;54.382;9.708;2022-08-03T12:17:44;32.90;67.70
60860;DHT22;46694;54.382;9.708;2022-08-03T12:20:26;32.90;67.80
60860;DHT22;46694;54.382;9.708;2022-08-03T12:23:07;32.80;67.30
60860;DHT22;46694;54.382;9.708;2022-08-03T12:25:48;32.60;67.80
60860;DHT22;46694;54.382;9.708;2022-08-03T12:28:27;32.70;67.50
60860;DHT22;46694;54.382;9.708;2022-08-03T12:31:08;32.70;67.60
60860;DHT22;46694;54.382;9.708;2022-08-03T12:34:05;32.60;67.60
60860;DHT22;46694;54.382;9.708;2022-08-03T12:36:54;32.50;67.50
60860;DHT22;46694;54.382;9.708;2022-08-03T12:39:35;32.30;68.00
60860;DHT22;46694;54.382;9.708;2022-08-03T12:42:14;32.20;68.90
60860;DHT22;46694;54.382;9.708;2022-08-03T12:44:54;32.20;68.70
60860;DHT22;46694;54.382;9.708;2022-08-03T12:47:56;32.00;68.90
60860;DHT22;46694;54.382;9.708;2022-08-03T12:50:37;31.90;70.20
60860;DHT22;46694;54.382;9.708;2022-08-03T12:53:27;31.90;70.10
60860;DHT22;46694;54.382;9.708;2022-08-03T12:56:08;32.00;70.60
60860;DHT22;46694;54.382;9.708;2022-08-03T12:58:47;32.00;70.50
60860;DHT22;46694;54.382;9.708;2022-08-03T13:01:35;32.00;70.10
60860;DHT22;46694;54.382;9.708;2022-08-03T13:04:31;31.90;69.50
60860;DHT22;46694;54.382;9.708;2022-08-03T13:07:14;31.80;70.00
60860;DHT22;46694;54.382;9.708;2022-08-03T13:09:55;31.70;70.60
60860;DHT22;46694;54.382;9.708;2022-08-03T13:12:46;31.80;70.70
60860;DHT22;46694;54.382;9.708;2022-08-03T13:15:26;31.70;70.90
60860;DHT22;46694;54.382;9.708;2022-08-03T13:18:07;31.70;71.00
60860;DHT22;46694;54.382;9.708;2022-08-03T13:20:47;31.70;71.40
60860;DHT22;46694;54.382;9.708;2022-08-03T13:23:26;31.70;71.30
60860;DHT22;46694;54.382;9.708;2022-08-03T13:26:06;31.80;71.20
60860;DHT22;46694;54.382;9.708;2022-08-03T13:28:46;31.80;70.50
60860;DHT22;46694;54.382;9.708;2022-08-03T13:31:26;31.70;70.80
60860;DHT22;46694;54.382;9.708;2022-08-03T13:34:05;31.70;70.90
60860;DHT22;46694;54.382;9.708;2022-08-03T13:36:45;31.80;71.40
60860;DHT22;46694;54.382;9.708;2022-08-03T13:39:24;31.80;71.10
60860;DHT22;46694;54.382;9.708;2022-08-03T13:42:04;31.80;70.40
60860;DHT22;46694;54.382;9.708;2022-08-03T13:44:43;31.70;70.90
60860;DHT22;46694;54.382;9.708;2022-08-03T13:47:23;31.70;71.40
60860;DHT22;46694;54.382;9.708;2022-08-03T13:50:03;31.70;71.40
60860;DHT22;46694;54.382;9.708;2022-08-03T13:52:43;31.80;72.40
60860;DHT22;46694;54.382;9.708;2022-08-03T13:55:24;31.90;71.20
60860;DHT22;46694;54.382;9.708;2022-08-03T13:58:04;31.70;71.20
60860;DHT22;46694;54.382;9.708;2022-08-03T14:00:45;31.80;71.50
60860;DHT22;46694;54.382;9.708;2022-08-03T14:03:25;31.70;71.40
60860;DHT22;46694;54.382;9.708;2022-08-03T14:06:05;31.60;71.50
60860;DHT22;46694;54.382;9.708;2022-08-03T14:08:45;31.80;71.30
60860;DHT22;46694;54.382;9.708;2022-08-03T14:11:26;31.80;71.50
60860;DHT22;46694;54.382;9.708;2022-08-03T14:14:06;31.80;71.60
60860;DHT22;46694;54.382;9.708;2022-08-03T14:16:46;31.70;71.70
60860;DHT22;46694;54.382;9.708;2022-08-03T14:19:25;31.50;72.00
60860;DHT22;46694;54.382;9.708;2022-08-03T14:22:05;31.30;72.40
60860;DHT22;46694;54.382;9.708;2022-08-03T14:24:45;31.30;72.70
60860;DHT22;46694;54.382;9.708;2022-08-03T14:27:24;31.40;72.80
60860;DHT22;46694;54.382;9.708;2022-08-03T14:30:04;31.40;72.80
60860;DHT22;46694;54.382;9.708;2022-08-03T14:32:44;31.40;72.70
60860;DHT22;46694;54.382;9.708;2022-08-03T14:35:24;31.40;73.30
60860;DHT22;46694;54.382;9.708;2022-08-03T14:38:04;31.30;73.70
60860;DHT22;46694;54.382;9.708;2022-08-03T14:40:44;31.40;74.10
60860;DHT22;46694;54.382;9.708;2022-08-03T14:43:23;31.40;73.70
60860;DHT22;46694;54.382;9.708;2022-08-03T14:46:03;31.30;73.70
60860;DHT22;46694;54.382;9.708;2022-08-03T14:48:43;31.20;73.90
60860;DHT22;46694;54.382;9.708;2022-08-03T14:51:22;31.10;74.30
60860;DHT22;46694;54.382;9.708;2022-08-03T14:54:02;31.10;74.60
60860;DHT22;46694;54.382;9.708;2022-08-03T14:56:41;31.00;75.00
60860;DHT22;46694;54.382;9.708;2022-08-03T14:59:21;30.90;75.10
60860;DHT22;46694;54.382;9.708;2022-08-03T15:02:01;30.80;75.20
60860;DHT22;46694;54.382;9.708;2022-08-03T15:04:40;30.70;75.20
60860;DHT22;46694;54.382;9.708;2022-08-03T15:07:20;30.60;75.30
60860;DHT22;46694;54.382;9.708;2022-08-03T15:09:59;30.60;75.90
60860;DHT22;46694;54.382;9.708;2022-08-03T15:12:39;30.60;76.20
60860;DHT22;46694;54.382;9.708;2022-08-03T15:15:18;30.60;76.50
60860;DHT22;46694;54.382;9.708;2022-08-03T15:17:58;30.70;76.50
60860;DHT22;46694;54.382;9.708;2022-08-03T15:20:38;30.90;76.80
60860;DHT22;46694;54.382;9.708;2022-08-03T15:23:18;31.10;77.10
60860;DHT22;46694;54.382;9.708;2022-08-03T15:25:57;31.20;76.20
60860;DHT22;46694;54.382;9.708;2022-08-03T15:28:37;31.30;75.80
60860;DHT22;46694;54.382;9.708;2022-08-03T15:31:21;31.30;75.80
60860;DHT22;46694;54.382;9.708;2022-08-03T15:34:01;31.30;75.50
60860;DHT22;46694;54.382;9.708;2022-08-03T15:36:41;31.30;75.30
60860;DHT22;46694;54.382;9.708;2022-08-03T15:39:20;31.30;74.90
60860;DHT22;46694;54.382;9.708;2022-08-03T15:42:00;31.10;74.80
60860;DHT22;46694;54.382;9.708;2022-08-03T15:44:40;31.00;75.50
60860;DHT22;46694;54.382;9.708;2022-08-03T15:47:19;30.90;74.60
60860;DHT22;46694;54.382;9.708;2022-08-03T15:49:59;30.90;74.90
60860;DHT22;46694;54.382;9.708;2022-08-03T15:52:38;31.00;75.10
60860;DHT22;46694;54.382;9.708;2022-08-03T15:55:18;31.00;75.00
60860;DHT22;46694;54.382;9.708;2022-08-03T15:57:58;30.90;75.10
60860;DHT22;46694;54.382;9.708;2022-08-03T16:00:38;30.90;75.10
60860;DHT22;46694;54.382;9.708;2022-08-03T16:03:18;30.90;75.60
60860;DHT22;46694;54.382;9.708;2022-08-03T16:05:57;30.80;75.50
60860;DHT22;46694;54.382;9.708;2022-08-03T16:08:37;30.80;75.40
60860;DHT22;46694;54.382;9.708;2022-08-03T16:11:17;30.60;75.40
60860;DHT22;46694;54.382;9.708;2022-08-03T16:13:56;30.50;75.50
60860;DHT22;46694;54.382;9.708;2022-08-03T16:16:36;30.40;75.80
60860;DHT22;46694;54.382;9.708;2022-08-03T16:19:18;30.50;76.00
60860;DHT22;46694;54.382;9.708;2022-08-03T16:21:58;30.40;75.70
60860;DHT22;46694;54.382;9.708;2022-08-03T16:24:38;30.30;75.90
60860;DHT22;46694;54.382;9.708;2022-08-03T16:27:18;30.20;76.30
60860;DHT22;46694;54.382;9.708;2022-08-03T16:29:58;30.30;76.70
60860;DHT22;46694;54.382;9.708;2022-08-03T16:32:37;30.30;77.10
60860;DHT22;46694;54.382;9.708;2022-08-03T16:35:17;30.40;77.30
60860;DHT22;46694;54.382;9.708;2022-08-03T16:37:57;30.40;77.50
60860;DHT22;46694;54.382;9.708;2022-08-03T16:40:37;30.30;77.60
60860;DHT22;46694;54.382;9.708;2022-08-03T16:43:17;30.30;77.80
60860;DHT22;46694;54.382;9.708;2022-08-03T16:45:57;30.30;78.20
60860;DHT22;46694;54.382;9.708;2022-08-03T16:48:40;30.30;78.30
60860;DHT22;46694;54.382;9.708;2022-08-03T16:51:19;30.40;78.50
60860;DHT22;46694;54.382;9.708;2022-08-03T16:54:00;30.40;78.20
60860;DHT22;46694;54.382;9.708;2022-08-03T16:56:40;30.40;78.30
60860;DHT22;46694;54.382;9.708;2022-08-03T16:59:20;30.30;78.60
60860;DHT22;46694;54.382;9.708;2022-08-03T17:02:01;30.20;78.90
60860;DHT22;46694;54.382;9.708;2022-08-03T17:04:42;30.10;79.40
60860;DHT22;46694;54.382;9.708;2022-08-03T17:07:21;30.00;79.80
60860;DHT22;46694;54.382;9.708;2022-08-03T17:10:01;30.00;80.20
60860;DHT22;46694;54.382;9.708;2022-08-03T17:12:40;29.90;80.60
60860;DHT22;46694;54.382;9.708;2022-08-03T17:15:20;29.80;80.90
60860;DHT22;46694;54.382;9.708;2022-08-03T17:18:03;29.60;82.10
60860;DHT22;46694;54.382;9.708;2022-08-03T17:20:46;29.60;81.90
60860;DHT22;46694;54.382;9.708;2022-08-03T17:26:22;29.40;82.60
60860;DHT22;46694;54.382;9.708;2022-08-03T17:29:04;29.40;82.90
60860;DHT22;46694;54.382;9.708;2022-08-03T17:31:44;29.30;83.60
60860;DHT22;46694;54.382;9.708;2022-08-03T17:34:24;29.20;83.90
60860;DHT22;46694;54.382;9.708;2022-08-03T17:37:04;29.10;84.30
60860;DHT22;46694;54.382;9.708;2022-08-03T17:39:44;29.10;84.70